Time;durP1;ratioP1;P1;durP2;ratioP2;P2;SDS_P1;SDS_P2;PMS_P1;PMS_P2;Temp;Humidity;BMP_temperature;BMP_pressure;BME280_temperature;BME280_humidity;BME280_pressure;Samples;Min_cycle;Max_cycle;Signal;HPM_P1;HPM_P2
2023/05/02 00:01:17;;;;;;;7.18;6.25;;;;;11.80;98714.00;;;;5054339;28;20044;-66
2023/05/02 00:03:44;;;;;;;6.40;5.78;;;;;11.80;98715.00;;;;5060603;28;20118;-66
2023/05/02 00:06:10;;;;;;;7.80;6.55;;;;;11.70;98715.00;;;;5067800;28;20049;-66
2023/05/02 00:08:37;;;;;;;8.65;6.95;;;;;11.70;98712.00;;;;5066944;28;20399;-66
2023/05/02 00:11:04;;;;;;;6.40;5.78;;;;;11.70;98711.00;;;;5066775;28;20136;-66
2023/05/02 00:13:31;;;;;;;6.40;5.43;;;;;11.70;98709.00;;;;5066153;28;20041;-65
2023/05/02 00:15:57;;;;;;;7.47;6.05;;;;;11.70;98709.00;;;;5064453;28;20518;-66
2023/05/02 00:18:24;;;;;;;6.60;5.90;;;;;11.70;98705.00;;;;5064437;28;20048;-66
2023/05/02 00:20:50;;;;;;;6.53;5.85;;;;;11.70;98700.00;;;;5063800;28;20041;-65
2023/05/02 00:23:17;;;;;;;6.32;5.72;;;;;11.60;98702.00;;;;5062408;28;20045;-65
2023/05/02 00:25:46;;;;;;;11.15;6.10;;;;;11.60;98705.00;;;;5063616;28;20095;-65
2023/05/02 00:28:13;;;;;;;6.20;5.60;;;;;11.60;98709.00;;;;5062275;28;20527;-65
2023/05/02 00:30:44;;;;;;;5.97;5.38;;;;;11.60;98709.00;;;;5060802;28;20071;-65
2023/05/02 00:33:12;;;;;;;6.80;6.05;;;;;11.60;98698.00;;;;5060291;28;20539;-65
2023/05/02 00:35:39;;;;;;;7.13;5.60;;;;;11.50;98706.00;;;;5062970;28;20048;-65
2023/05/02 00:38:06;;;;;;;6.07;5.47;;;;;11.40;98705.00;;;;5061443;28;20045;-65
2023/05/02 00:40:47;;;;;;;6.60;5.57;;;;;11.30;98712.00;;;;5060533;28;20053;-65
2023/05/02 00:43:14;;;;;;;8.35;5.90;;;;;11.00;98707.00;;;;5061770;28;20045;-65
2023/05/02 00:45:42;;;;;;;5.93;5.32;;;;;10.90;98711.00;;;;5060429;28;20053;-65
2023/05/02 00:48:10;;;;;;;6.45;5.53;;;;;10.70;98706.00;;;;5059929;28;20060;-65
2023/05/02 00:50:41;;;;;;;6.47;5.80;;;;;10.70;98707.00;;;;5061137;28;20075;-65
2023/05/02 00:53:09;;;;;;;8.98;6.45;;;;;10.70;98711.00;;;;5060572;28;20045;-65
2023/05/02 00:55:36;;;;;;;6.75;6.03;;;;;10.70;98703.00;;;;5059787;28;20041;-65
2023/05/02 00:58:12;;;;;;;8.95;5.95;;;;;10.80;98711.00;;;;5061366;28;20040;-65
2023/05/02 01:00:57;;;;;;;6.10;5.45;;;;;10.80;98709.00;;;;5057015;28;20057;-65
2023/05/02 01:03:53;;;;;;;6.65;5.93;;;;;10.80;98712.00;;;;5052715;28;20433;-65
2023/05/02 01:06:46;;;;;;;7.18;5.53;;;;;10.70;98709.00;;;;5017172;28;20092;-65
2023/05/02 01:09:33;;;;;;;6.43;5.82;;;;;10.50;98712.00;;;;5052255;28;20564;-65
2023/05/02 01:12:05;;;;;;;6.78;6.07;;;;;10.40;98711.00;;;;5035921;28;20053;-65
2023/05/02 01:14:40;;;;;;;9.02;6.53;;;;;10.40;98719.00;;;;5053528;28;20044;-65
2023/05/02 01:17:11;;;;;;;6.00;5.25;;;;;10.60;98717.00;;;;5053798;28;20079;-65
2023/05/02 01:19:42;;;;;;;6.07;5.47;;;;;10.70;98723.00;;;;5052082;28;20089;-65
2023/05/02 01:22:10;;;;;;;7.93;5.65;;;;;10.80;98726.00;;;;5053771;28;20074;-65
2023/05/02 01:25:17;;;;;;;6.40;5.80;;;;;10.80;98725.00;;;;5053494;28;20049;-65
2023/05/02 01:28:18;;;;;;;6.93;5.53;;;;;10.80;98729.00;;;;5035735;28;20041;-65
2023/05/02 01:30:46;;;;;;;5.93;5.32;;;;;10.80;98731.00;;;;5053356;28;20502;-65
2023/05/02 01:33:15;;;;;;;6.85;5.82;;;;;10.70;98732.00;;;;5053259;28;20044;-65
2023/05/02 01:35:45;;;;;;;6.78;6.07;;;;;10.50;98734.00;;;;5053434;28;20068;-65
2023/05/02 01:38:15;;;;;;;7.13;6.00;;;;;10.40;98722.00;;;;5053149;28;20047;-65
2023/05/02 01:40:44;;;;;;;6.95;5.97;;;;;10.40;98734.00;;;;5051863;28;20045;-65
2023/05/02 01:43:14;;;;;;;6.55;5.20;;;;;10.30;98737.00;;;;5051444;28;20414;-65
2023/05/02 01:45:43;;;;;;;7.65;5.65;;;;;10.30;98739.00;;;;5053297;28;20049;-65
2023/05/02 01:48:10;;;;;;;6.25;5.65;;;;;10.40;98750.00;;;;5053261;28;20049;-65
2023/05/02 01:50:40;;;;;;;8.45;5.55;;;;;10.40;98739.00;;;;5051231;28;20530;-65
2023/05/02 01:53:08;;;;;;;6.90;5.57;;;;;10.40;98750.00;;;;5051776;28;20140;-65
2023/05/02 01:55:37;;;;;;;7.32;5.35;;;;;10.30;98747.00;;;;5052289;28;20490;-64
2023/05/02 01:58:05;;;;;;;8.43;6.25;;;;;10.30;98757.00;;;;5052799;28;20049;-65
2023/05/02 02:00:33;;;;;;;9.93;7.55;;;;;10.30;98756.00;;;;5057160;28;20041;-65
2023/05/02 02:03:01;;;;;;;7.53;6.30;;;;;10.40;98764.00;;;;5064061;28;20044;-65
2023/05/02 02:05:28;;;;;;;6.80;6.10;;;;;10.40;98756.00;;;;5057370;28;20048;-65
2023/05/02 02:07:54;;;;;;;6.30;5.70;;;;;10.50;98764.00;;;;5051525;28;20049;-65
2023/05/02 02:10:24;;;;;;;6.30;5.70;;;;;10.50;98771.00;;;;5051449;28;20049;-65
2023/05/02 02:12:53;;;;;;;6.28;5.68;;;;;10.50;98772.00;;;;5052781;28;20048;-65
2023/05/02 02:15:33;;;;;;;6.28;5.50;;;;;10.40;98773.00;;;;5052728;28;20053;-65
2023/05/02 02:18:04;;;;;;;5.78;5.28;;;;;10.30;98778.00;;;;5052630;28;20067;-65
2023/05/02 02:20:31;;;;;;;5.97;5.38;;;;;10.30;98787.00;;;;5052440;28;20041;-65
2023/05/02 02:23:04;;;;;;;6.13;4.82;;;;;10.20;98774.00;;;;5052666;28;20052;-65
2023/05/02 02:25:32;;;;;;;6.03;5.43;;;;;10.20;98779.00;;;;5051190;28;20139;-65
2023/05/02 02:28:00;;;;;;;6.32;5.43;;;;;10.20;98791.00;;;;5052269;28;20412;-65
2023/05/02 02:30:26;;;;;;;6.03;5.43;;;;;10.20;98781.00;;;;5050753;28;20135;-65
2023/05/02 02:32:53;;;;;;;5.97;5.47;;;;;10.00;98795.00;;;;5052501;28;20383;-64
2023/05/02 02:35:22;;;;;;;6.20;5.60;;;;;9.90;98787.00;;;;5051211;28;20099;-65
2023/05/02 02:38:04;;;;;;;6.45;5.70;;;;;9.90;98800.00;;;;5051231;28;20049;-65
2023/05/02 02:40:45;;;;;;;6.90;6.18;;;;;10.00;98802.00;;;;5052127;28;20056;-65
2023/05/02 02:43:50;;;;;;;5.60;5.10;;;;;10.10;98787.00;;;;5050796;28;20048;-65
2023/05/02 02:46:47;;;;;;;6.82;5.47;;;;;10.10;98795.00;;;;5048872;28;20064;-65
2023/05/02 02:49:29;;;;;;;6.32;5.72;;;;;10.00;98796.00;;;;5051673;28;20037;-65
2023/05/02 02:52:09;;;;;;;10.05;6.75;;;;;9.90;98807.00;;;;5034357;28;20095;-65
2023/05/02 02:54:50;;;;;;;7.05;6.13;;;;;9.90;98798.00;;;;5050303;28;20409;-65
2023/05/02 02:57:46;;;;;;;7.50;6.35;;;;;10.00;98805.00;;;;5052031;28;20521;-65
2023/05/02 03:00:18;;;;;;;6.80;5.95;;;;;9.90;98810.00;;;;5050590;28;20045;-65
2023/05/02 03:02:46;;;;;;;7.28;6.03;;;;;9.90;98813.00;;;;5052005;28;20040;-65
2023/05/02 03:05:13;;;;;;;7.93;6.45;;;;;9.80;98814.00;;;;5051641;28;20045;-65
2023/05/02 03:07:40;;;;;;;6.63;5.90;;;;;9.70;98809.00;;;;5051987;28;20041;-65
2023/05/02 03:10:07;;;;;;;7.18;6.20;;;;;9.80;98826.00;;;;5052021;28;20044;-65
2023/05/02 03:12:36;;;;;;;6.95;6.25;;;;;9.80;98828.00;;;;5050906;28;20048;-65
2023/05/02 03:15:23;;;;;;;8.25;6.03;;;;;9.80;98832.00;;;;5034259;28;20045;-65
2023/05/02 03:17:50;;;;;;;5.90;5.18;;;;;9.80;98836.00;;;;5050512;28;20049;-65
2023/05/02 03:20:18;;;;;;;5.70;5.20;;;;;9.90;98822.00;;;;5033920;28;20045;-64
2023/05/02 03:22:44;;;;;;;7.47;5.50;;;;;9.90;98821.00;;;;5050460;28;20074;-64
2023/05/02 03:25:11;;;;;;;7.55;5.45;;;;;9.90;98825.00;;;;5050902;28;20087;-65
2023/05/02 03:27:42;;;;;;;5.68;5.18;;;;;9.90;98828.00;;;;5050323;28;20041;-65
2023/05/02 03:30:10;;;;;;;5.20;4.70;;;;;10.00;98833.00;;;;5050299;28;20453;-64
2023/05/02 03:32:37;;;;;;;5.50;4.72;;;;;10.00;98838.00;;;;5050399;28;20144;-64
2023/05/02 03:35:04;;;;;;;6.03;5.43;;;;;9.90;98848.00;;;;5050236;28;20045;-65
2023/05/02 03:37:36;;;;;;;8.32;5.38;;;;;9.90;98844.00;;;;5035055;28;20486;-65
2023/05/02 03:40:03;;;;;;;7.53;5.45;;;;;9.90;98845.00;;;;5051602;28;20072;-65
2023/05/02 03:42:30;;;;;;;7.20;5.10;;;;;9.90;98853.00;;;;5052098;28;20053;-65
2023/05/02 03:44:57;;;;;;;5.80;5.20;;;;;9.80;98856.00;;;;5050445;28;20116;-65
2023/05/02 03:47:25;;;;;;;6.93;5.22;;;;;9.80;98859.00;;;;5050286;28;20099;-65
2023/05/02 03:49:52;;;;;;;5.93;5.20;;;;;9.80;98858.00;;;;5051373;28;20037;-65
2023/05/02 03:52:20;;;;;;;6.22;5.00;;;;;9.90;98851.00;;;;5050303;28;20144;-67
2023/05/02 03:54:49;;;;;;;6.35;5.40;;;;;9.80;98863.00;;;;5050399;28;20118;-65
2023/05/02 03:57:16;;;;;;;6.63;5.90;;;;;9.80;98862.00;;;;5033717;28;20379;-66
2023/05/02 03:59:44;;;;;;;6.45;5.05;;;;;9.80;98874.00;;;;5033479;28;20041;-66
2023/05/02 04:02:20;;;;;;;6.35;5.20;;;;;9.80;98873.00;;;;5050161;28;20567;-66
2023/05/02 04:04:48;;;;;;;6.28;5.63;;;;;9.80;98864.00;;;;5050335;28;20136;-65
2023/05/02 04:07:18;;;;;;;6.20;5.60;;;;;9.80;98864.00;;;;5052580;28;20074;-65
2023/05/02 04:09:49;;;;;;;7.85;6.30;;;;;9.70;98869.00;;;;5053377;28;20067;-65
2023/05/02 04:12:15;;;;;;;10.90;8.15;;;;;9.60;98872.00;;;;5037112;28;20041;-65
2023/05/02 04:14:45;;;;;;;12.30;9.40;;;;;9.70;98877.00;;;;5053936;28;20502;-65
2023/05/02 04:17:14;;;;;;;10.07;7.90;;;;;9.80;98874.00;;;;5053946;28;20051;-65
2023/05/02 04:19:45;;;;;;;7.15;6.45;;;;;9.50;98870.00;;;;5054651;28;20037;-67
2023/05/02 04:22:12;;;;;;;10.18;6.63;;;;;9.40;98876.00;;;;5053713;28;20045;-65
2023/05/02 04:24:44;;;;;;;11.45;9.10;;;;;9.30;98887.00;;;;5053573;28;20081;-66
2023/05/02 04:27:13;;;;;;;12.82;9.23;;;;;9.40;98879.00;;;;5037794;28;20048;-66
2023/05/02 04:29:41;;;;;;;7.50;5.78;;;;;9.30;98889.00;;;;5053403;28;20076;-67
2023/05/02 04:32:10;;;;;;;7.85;6.95;;;;;9.20;98883.00;;;;5053482;28;20049;-67
2023/05/02 04:34:38;;;;;;;8.20;5.93;;;;;9.20;98882.00;;;;5053411;28;20080;-66
2023/05/02 04:37:05;;;;;;;12.60;10.18;;;;;9.30;98882.00;;;;5053409;28;20041;-66
2023/05/02 04:39:33;;;;;;;14.15;8.75;;;;;9.30;98893.00;;;;5053086;28;20049;-67
2023/05/02 04:42:03;;;;;;;7.15;5.97;;;;;9.30;98895.00;;;;5053531;28;20047;-67
2023/05/02 04:44:35;;;;;;;12.30;6.75;;;;;9.40;98895.00;;;;5053419;28;20041;-67
2023/05/02 04:47:03;;;;;;;7.68;5.90;;;;;9.40;98898.00;;;;5053162;28;20071;-67
2023/05/02 04:49:30;;;;;;;7.63;5.90;;;;;9.50;98899.00;;;;5054107;28;20049;-67
2023/05/02 04:51:57;;;;;;;9.40;6.32;;;;;9.50;98911.00;;;;5054182;28;20041;-67
2023/05/02 04:54:24;;;;;;;6.80;5.65;;;;;9.60;98920.00;;;;5054727;28;20045;-65
2023/05/02 04:56:51;;;;;;;7.55;5.50;;;;;9.60;98922.00;;;;5052871;28;20052;-65
2023/05/02 04:59:18;;;;;;;7.30;5.50;;;;;9.50;98922.00;;;;5053529;28;20075;-67
2023/05/02 05:01:45;;;;;;;7.15;5.43;;;;;9.60;98926.00;;;;5053583;28;20597;-65
2023/05/02 05:04:12;;;;;;;6.45;5.85;;;;;9.70;98930.00;;;;5052904;28;20049;-64
2023/05/02 05:06:39;;;;;;;5.85;5.30;;;;;9.70;98925.00;;;;5052786;28;20059;-65
2023/05/02 05:09:07;;;;;;;7.53;5.93;;;;;9.70;98934.00;;;;5051941;28;20128;-64
2023/05/02 05:11:35;;;;;;;5.38;4.88;;;;;9.70;98939.00;;;;5036206;28;20041;-65
2023/05/02 05:14:03;;;;;;;6.60;5.22;;;;;9.90;98944.00;;;;5054110;28;20524;-66
2023/05/02 05:16:32;;;;;;;7.80;5.53;;;;;10.00;98948.00;;;;5052525;28;20107;-65
2023/05/02 05:18:59;;;;;;;5.82;5.32;;;;;10.20;98946.00;;;;5051515;28;20048;-65
2023/05/02 05:21:26;;;;;;;9.50;5.25;;;;;10.20;98955.00;;;;5052494;28;20067;-65
2023/05/02 05:23:53;;;;;;;6.63;5.95;;;;;10.20;98940.00;;;;5052481;28;20523;-65
2023/05/02 05:26:25;;;;;;;6.60;5.45;;;;;10.30;98947.00;;;;5052693;28;20502;-65
2023/05/02 05:28:52;;;;;;;5.97;5.38;;;;;10.40;98943.00;;;;5052159;28;20044;-64
2023/05/02 05:31:23;;;;;;;9.57;8.48;;;;;10.50;98942.00;;;;5052533;28;20041;-65
2023/05/02 05:33:53;;;;;;;8.25;6.72;;;;;10.60;98954.00;;;;5051978;28;20136;-66
2023/05/02 05:36:21;;;;;;;7.57;6.60;;;;;10.70;98964.00;;;;5052268;28;20555;-65
2023/05/02 05:38:50;;;;;;;8.57;7.28;;;;;10.80;98965.00;;;;5052242;28;20555;-65
2023/05/02 05:41:17;;;;;;;9.68;6.25;;;;;10.70;98975.00;;;;5035670;28;20045;-65
2023/05/02 05:43:47;;;;;;;9.38;6.57;;;;;10.80;98972.00;;;;5036191;28;20457;-65
2023/05/02 05:46:14;;;;;;;10.35;6.88;;;;;10.90;98979.00;;;;5052197;28;20079;-65
2023/05/02 05:48:41;;;;;;;8.70;7.18;;;;;11.00;98988.00;;;;5052328;28;20053;-65
2023/05/02 05:51:08;;;;;;;9.13;6.30;;;;;11.00;98986.00;;;;5052205;28;20076;-65
2023/05/02 05:53:35;;;;;;;6.75;6.10;;;;;11.00;98987.00;;;;5052290;28;20045;-66
2023/05/02 05:56:10;;;;;;;9.13;6.65;;;;;11.00;98990.00;;;;5052487;28;20052;-66
2023/05/02 05:58:39;;;;;;;6.63;5.93;;;;;11.20;98998.00;;;;5053490;28;20379;-66
2023/05/02 06:01:07;;;;;;;9.48;6.60;;;;;11.40;99003.00;;;;5058213;28;20037;-65
2023/05/02 06:03:34;;;;;;;7.40;6.65;;;;;11.80;98999.00;;;;5068839;28;20041;-65
2023/05/02 06:06:01;;;;;;;10.63;7.03;;;;;12.00;98997.00;;;;5065554;28;20072;-65
2023/05/02 06:08:28;;;;;;;10.02;6.88;;;;;12.20;99009.00;;;;5053540;28;20041;-65
2023/05/02 06:10:55;;;;;;;12.68;7.30;;;;;12.30;99008.00;;;;5052974;28;20041;-66
2023/05/02 06:13:22;;;;;;;8.63;7.15;;;;;12.30;99003.00;;;;5051393;28;20053;-65
2023/05/02 06:15:49;;;;;;;10.18;6.10;;;;;12.40;99014.00;;;;5051711;28;20055;-65
2023/05/02 06:18:16;;;;;;;9.65;7.00;;;;;12.40;99011.00;;;;5051768;28;20124;-65
2023/05/02 06:20:43;;;;;;;10.15;7.05;;;;;12.60;99016.00;;;;5052821;28;20045;-66
2023/05/02 06:23:09;;;;;;;9.65;7.50;;;;;12.70;99014.00;;;;5053192;28;20041;-66
2023/05/02 06:25:37;;;;;;;9.77;8.52;;;;;12.80;99026.00;;;;5052103;28;20494;-65
2023/05/02 06:28:03;;;;;;;10.00;7.72;;;;;12.90;99028.00;;;;5052971;28;20146;-66
2023/05/02 06:30:30;;;;;;;11.68;8.43;;;;;12.90;99032.00;;;;5051465;28;20041;-66
2023/05/02 06:32:56;;;;;;;9.55;7.38;;;;;13.10;99029.00;;;;5052921;28;20045;-65
2023/05/02 06:35:23;;;;;;;12.93;8.18;;;;;13.20;99034.00;;;;5051421;28;20041;-65
2023/05/02 06:37:49;;;;;;;10.60;8.75;;;;;13.30;99048.00;;;;5052977;28;20045;-66
2023/05/02 06:40:16;;;;;;;13.32;10.68;;;;;13.50;99049.00;;;;5053078;28;20043;-65
2023/05/02 06:42:43;;;;;;;11.68;10.13;;;;;13.60;99057.00;;;;5052866;28;20048;-66
2023/05/02 06:45:10;;;;;;;12.48;9.43;;;;;13.60;99051.00;;;;5051456;28;20120;-66
2023/05/02 06:47:36;;;;;;;11.77;10.30;;;;;13.50;99044.00;;;;5051221;28;20045;-66
2023/05/02 06:50:03;;;;;;;14.15;10.65;;;;;13.70;99043.00;;;;5050842;28;20095;-66
2023/05/02 06:52:29;;;;;;;16.60;11.65;;;;;14.00;99055.00;;;;5051304;28;20094;-66
2023/05/02 06:54:56;;;;;;;18.67;14.30;;;;;14.30;99048.00;;;;5052490;28;20048;-65
2023/05/02 06:57:23;;;;;;;17.80;14.70;;;;;14.60;99054.00;;;;5052349;28;20106;-65
2023/05/02 06:59:50;;;;;;;16.98;12.18;;;;;14.60;99053.00;;;;5052113;28;20508;-65
2023/05/02 07:02:16;;;;;;;18.95;14.77;;;;;14.60;99059.00;;;;5051032;28;20052;-66
2023/05/02 07:04:43;;;;;;;21.17;16.50;;;;;14.60;99062.00;;;;5052351;28;20044;-65
2023/05/02 07:07:10;;;;;;;24.15;17.73;;;;;14.70;99062.00;;;;5051055;28;20052;-66
2023/05/02 07:09:36;;;;;;;27.40;19.63;;;;;15.00;99071.00;;;;5050694;28;20045;-65
2023/05/02 07:12:03;;;;;;;30.63;21.95;;;;;15.00;99081.00;;;;5050669;28;20079;-65
2023/05/02 07:14:32;;;;;;;38.67;26.92;;;;;15.10;99076.00;;;;5051835;28;20072;-66
2023/05/02 07:16:59;;;;;;;33.28;24.77;;;;;15.10;99083.00;;;;5051912;28;20114;-66
2023/05/02 07:19:25;;;;;;;35.55;27.17;;;;;15.00;99083.00;;;;5050507;28;20045;-66
2023/05/02 07:21:52;;;;;;;35.67;27.00;;;;;14.90;99085.00;;;;5052222;28;20037;-66
2023/05/02 07:24:18;;;;;;;37.20;26.88;;;;;14.90;99083.00;;;;5052684;28;20433;-66
2023/05/02 07:26:45;;;;;;;37.78;26.23;;;;;15.00;99079.00;;;;5052538;28;20056;-65
2023/05/02 07:29:11;;;;;;;37.50;26.33;;;;;15.10;99078.00;;;;5050431;28;20098;-65
2023/05/02 07:31:38;;;;;;;35.03;25.23;;;;;15.20;99076.00;;;;5050592;28;20494;-65
2023/05/02 07:34:05;;;;;;;34.25;24.40;;;;;15.30;99088.00;;;;5050973;28;20529;-65
2023/05/02 07:36:31;;;;;;;34.10;25.90;;;;;15.50;99080.00;;;;5050708;28;20127;-65
2023/05/02 07:38:58;;;;;;;30.17;23.60;;;;;15.70;99086.00;;;;5050300;28;20066;-65
2023/05/02 07:41:25;;;;;;;30.25;22.20;;;;;15.80;99094.00;;;;5052900;28;20402;-65
2023/05/02 07:43:51;;;;;;;31.33;23.33;;;;;15.90;99094.00;;;;5055758;28;20472;-65
2023/05/02 07:46:18;;;;;;;32.33;22.65;;;;;15.80;99092.00;;;;5055604;28;20052;-65
2023/05/02 07:48:44;;;;;;;30.17;22.80;;;;;15.80;99109.00;;;;5055263;28;20048;-65
2023/05/02 07:51:11;;;;;;;34.88;23.80;;;;;15.80;99107.00;;;;5054237;28;20045;-66
2023/05/02 07:53:38;;;;;;;29.85;21.83;;;;;15.70;99095.00;;;;5054299;28;20390;-66
2023/05/02 07:56:05;;;;;;;31.48;23.20;;;;;15.80;99094.00;;;;5055944;28;20044;-66
2023/05/02 07:58:32;;;;;;;30.67;22.52;;;;;15.80;99106.00;;;;5055237;28;20045;-67
2023/05/02 08:00:58;;;;;;;31.95;22.70;;;;;15.90;99099.00;;;;5055457;28;20037;-67
2023/05/02 08:03:26;;;;;;;32.83;22.60;;;;;15.80;99107.00;;;;5055399;28;20095;-65
2023/05/02 08:05:53;;;;;;;31.30;21.77;;;;;15.80;99113.00;;;;5055210;28;20047;-64
2023/05/02 08:08:19;;;;;;;34.22;24.73;;;;;15.60;99119.00;;;;5055268;28;20566;-64
2023/05/02 08:10:46;;;;;;;30.67;22.77;;;;;15.50;99125.00;;;;5055049;28;20519;-64
2023/05/02 08:13:12;;;;;;;32.42;21.95;;;;;15.50;99115.00;;;;5054861;28;20051;-64
2023/05/02 08:15:39;;;;;;;28.88;21.33;;;;;15.70;99120.00;;;;5054967;28;20433;-65
2023/05/02 08:18:06;;;;;;;30.70;22.08;;;;;15.60;99115.00;;;;5054866;28;20391;-65
2023/05/02 08:20:32;;;;;;;34.20;22.30;;;;;15.70;99121.00;;;;5054445;28;20410;-65
2023/05/02 08:22:59;;;;;;;30.23;21.67;;;;;15.70;99117.00;;;;5054800;28;20037;-65
2023/05/02 08:25:26;;;;;;;30.88;22.77;;;;;15.70;99130.00;;;;5054694;28;20509;-66
2023/05/02 08:27:52;;;;;;;31.90;23.17;;;;;15.80;99126.00;;;;5053392;28;20041;-65
2023/05/02 08:30:19;;;;;;;30.58;21.80;;;;;15.90;99124.00;;;;5054669;28;20049;-65
2023/05/02 08:32:46;;;;;;;31.73;22.35;;;;;15.80;99124.00;;;;5053543;28;20053;-65
2023/05/02 08:35:12;;;;;;;33.97;22.77;;;;;16.00;99136.00;;;;5054691;28;20045;-65
2023/05/02 08:37:39;;;;;;;30.40;21.73;;;;;16.20;99136.00;;;;5054600;28;20041;-65
2023/05/02 08:40:10;;;;;;;29.58;20.48;;;;;16.40;99145.00;;;;5054249;28;20523;-65
2023/05/02 08:42:42;;;;;;;27.00;19.33;;;;;16.50;99146.00;;;;5034252;28;20491;-66
2023/05/02 08:45:11;;;;;;;26.55;19.63;;;;;16.70;99147.00;;;;5034310;28;20045;-65
2023/05/02 08:47:39;;;;;;;20.67;15.70;;;;;16.70;99148.00;;;;5034561;28;20425;-65
2023/05/02 08:50:10;;;;;;;20.17;15.43;;;;;16.60;99145.00;;;;5033863;28;20048;-65
2023/05/02 08:52:37;;;;;;;21.70;15.60;;;;;16.50;99148.00;;;;5033609;28;20101;-66
2023/05/02 08:55:06;;;;;;;19.13;13.52;;;;;16.60;99153.00;;;;5033889;28;20046;-65
2023/05/02 08:57:33;;;;;;;18.88;14.07;;;;;16.60;99151.00;;;;5035533;28;20045;-65
2023/05/02 08:59:59;;;;;;;17.52;13.18;;;;;16.50;99165.00;;;;5033227;28;20049;-66
2023/05/02 09:03:00;;;;;;;20.63;15.60;;;;;16.50;99162.00;;;;5034692;28;20038;-65
2023/05/02 09:05:32;;;;;;;23.33;16.48;;;;;16.40;99162.00;;;;5035800;28;20056;-66
2023/05/02 09:07:58;;;;;;;24.33;17.17;;;;;16.30;99167.00;;;;5033541;28;20045;-66
2023/05/02 09:10:27;;;;;;;24.30;17.13;;;;;16.20;99173.00;;;;5034190;28;20069;-66
2023/05/02 09:12:54;;;;;;;25.25;16.50;;;;;16.20;99174.00;;;;5034338;28;20050;-66
2023/05/02 09:15:21;;;;;;;23.17;17.17;;;;;16.30;99178.00;;;;5034633;28;20406;-65
2023/05/02 09:17:48;;;;;;;28.35;16.75;;;;;16.40;99173.00;;;;5035349;28;20141;-66
2023/05/02 09:20:15;;;;;;;25.35;15.82;;;;;16.40;99180.00;;;;5037198;28;20387;-66
2023/05/02 09:22:52;;;;;;;22.00;15.50;;;;;16.40;99174.00;;;;5037117;28;20041;-66
2023/05/02 09:25:19;;;;;;;21.73;15.57;;;;;16.40;99178.00;;;;5036986;28;20049;-65
2023/05/02 09:27:54;;;;;;;22.40;15.73;;;;;16.20;99181.00;;;;5037372;28;20461;-66
2023/05/02 09:30:25;;;;;;;22.88;15.43;;;;;16.20;99185.00;;;;5036391;28;20052;-66
2023/05/02 09:32:55;;;;;;;22.85;15.93;;;;;16.10;99187.00;;;;5037009;28;20059;-65
2023/05/02 09:35:25;;;;;;;25.88;17.08;;;;;16.00;99186.00;;;;5036635;28;20399;-65
2023/05/02 09:37:53;;;;;;;23.77;16.20;;;;;16.20;99189.00;;;;5034385;28;20052;-66
2023/05/02 09:40:20;;;;;;;26.52;17.00;;;;;16.30;99183.00;;;;5033626;28;20498;-66
2023/05/02 09:42:46;;;;;;;25.35;16.40;;;;;16.40;99187.00;;;;5033380;28;20375;-66
2023/05/02 09:45:24;;;;;;;27.33;17.23;;;;;16.60;99186.00;;;;5033432;28;20502;-66
2023/05/02 09:47:51;;;;;;;23.38;16.33;;;;;16.80;99196.00;;;;5033678;28;20049;-66
2023/05/02 09:50:35;;;;;;;26.10;16.65;;;;;16.90;99200.00;;;;5031888;28;20047;-66
2023/05/02 09:53:07;;;;;;;23.35;16.08;;;;;16.90;99207.00;;;;5033388;28;20053;-66
2023/05/02 09:55:34;;;;;;;22.17;16.05;;;;;17.10;99206.00;;;;5033548;28;20486;-66
2023/05/02 09:58:01;;;;;;;23.95;15.05;;;;;17.30;99210.00;;;;5032842;28;20048;-66
2023/05/02 10:00:42;;;;;;;24.70;16.15;;;;;17.50;99205.00;;;;5031369;28;20079;-66
2023/05/02 10:03:09;;;;;;;24.38;15.30;;;;;17.60;99212.00;;;;5033367;28;20510;-66
2023/05/02 10:05:37;;;;;;;24.65;15.57;;;;;17.50;99205.00;;;;5044557;28;20049;-66
2023/05/02 10:08:09;;;;;;;26.20;17.20;;;;;17.60;99216.00;;;;5043484;28;20053;-65
2023/05/02 10:10:37;;;;;;;22.60;14.18;;;;;17.70;99211.00;;;;5034400;28;20053;-66
2023/05/02 10:13:05;;;;;;;19.15;13.43;;;;;17.70;99218.00;;;;5033124;28;20064;-66
2023/05/02 10:15:32;;;;;;;22.05;14.50;;;;;17.70;99212.00;;;;5033094;28;20491;-66
2023/05/02 10:18:04;;;;;;;21.52;13.77;;;;;17.60;99212.00;;;;5031311;28;20045;-66
2023/05/02 10:20:48;;;;;;;20.15;13.10;;;;;17.80;99215.00;;;;5031347;28;20050;-66
2023/05/02 10:23:15;;;;;;;17.58;11.45;;;;;18.10;99217.00;;;;5032608;28;20411;-66
2023/05/02 10:25:42;;;;;;;18.27;12.23;;;;;18.10;99211.00;;;;5032939;28;20473;-66
2023/05/02 10:28:10;;;;;;;14.60;10.45;;;;;18.00;99214.00;;;;5032733;28;20045;-65
2023/05/02 10:30:40;;;;;;;13.32;9.27;;;;;17.80;99210.00;;;;5031187;28;20052;-65
2023/05/02 10:33:06;;;;;;;14.27;9.27;;;;;17.80;99211.00;;;;5031333;28;20041;-65
2023/05/02 10:35:35;;;;;;;13.48;9.50;;;;;17.70;99216.00;;;;5032546;28;20068;-65
2023/05/02 10:38:02;;;;;;;11.02;8.15;;;;;17.60;99216.00;;;;5031656;28;20045;-66
2023/05/02 10:40:30;;;;;;;12.95;8.93;;;;;17.50;99221.00;;;;5032480;28;20127;-65
2023/05/02 10:42:56;;;;;;;13.90;9.00;;;;;17.40;99218.00;;;;5032867;28;20569;-66
2023/05/02 10:45:34;;;;;;;12.82;9.15;;;;;17.50;99213.00;;;;5031154;28;20037;-66
2023/05/02 10:48:26;;;;;;;12.95;9.40;;;;;17.60;99218.00;;;;5032563;28;20061;-65
2023/05/02 10:51:00;;;;;;;14.48;10.05;;;;;17.70;99219.00;;;;5030893;28;20049;-64
2023/05/02 10:53:39;;;;;;;16.70;9.50;;;;;17.70;99211.00;;;;5032278;28;20103;-65
2023/05/02 10:56:20;;;;;;;16.67;11.13;;;;;18.00;99212.00;;;;5031300;28;20053;-68
2023/05/02 10:58:52;;;;;;;15.45;10.57;;;;;18.20;99212.00;;;;5032349;28;20064;-66
2023/05/02 11:01:25;;;;;;;16.17;10.27;;;;;18.50;99214.00;;;;5030966;28;20045;-66
2023/05/02 11:03:56;;;;;;;12.15;8.27;;;;;18.60;99220.00;;;;5033746;28;20045;-66
2023/05/02 11:06:36;;;;;;;12.38;8.90;;;;;18.50;99221.00;;;;5034338;28;20047;-67
2023/05/02 11:09:25;;;;;;;11.82;8.55;;;;;18.10;99213.00;;;;5034439;28;20103;-68
2023/05/02 11:11:55;;;;;;;12.00;8.23;;;;;17.80;99218.00;;;;5017976;28;20099;-67
2023/05/02 11:14:24;;;;;;;13.63;8.48;;;;;17.80;99213.00;;;;5033407;28;20057;-66
2023/05/02 11:16:57;;;;;;;10.18;6.90;;;;;17.70;99214.00;;;;5033788;28;20050;-66
2023/05/02 11:19:25;;;;;;;7.55;5.90;;;;;17.60;99219.00;;;;5035826;28;20501;-67
2023/05/02 11:22:26;;;;;;;9.82;6.72;;;;;17.50;99219.00;;;;5034493;28;20049;-67
2023/05/02 11:24:53;;;;;;;8.60;6.00;;;;;17.50;99215.00;;;;5036069;28;20041;-68
2023/05/02 11:27:42;;;;;;;10.93;7.47;;;;;17.60;99213.00;;;;5034778;28;20049;-70
2023/05/02 11:30:09;;;;;;;12.52;7.43;;;;;17.60;99211.00;;;;5017934;28;20045;-68
2023/05/02 11:32:46;;;;;;;10.07;6.50;;;;;17.60;99208.00;;;;5035944;28;20053;-68
2023/05/02 11:35:20;;;;;;;9.63;6.95;;;;;17.50;99211.00;;;;5036042;28;20059;-65
2023/05/02 11:37:54;;;;;;;8.80;6.40;;;;;17.40;99210.00;;;;5034616;28;20387;-66
2023/05/02 11:40:21;;;;;;;10.60;7.18;;;;;17.40;99202.00;;;;5035633;28;20049;-65
2023/05/02 11:42:47;;;;;;;10.20;7.00;;;;;17.60;99205.00;;;;5035567;28;20042;-65
2023/05/02 11:45:14;;;;;;;9.10;6.38;;;;;17.70;99200.00;;;;5035647;28;20091;-65
2023/05/02 11:47:42;;;;;;;10.52;6.90;;;;;18.00;99203.00;;;;5035419;28;20049;-65
2023/05/02 11:50:09;;;;;;;10.23;6.57;;;;;18.10;99197.00;;;;5035394;28;20067;-65
2023/05/02 11:52:40;;;;;;;13.52;6.82;;;;;18.10;99204.00;;;;5035469;28;20048;-66
2023/05/02 11:55:11;;;;;;;10.15;6.72;;;;;18.10;99214.00;;;;5035308;28;20060;-67
2023/05/02 11:57:38;;;;;;;8.50;6.43;;;;;17.80;99197.00;;;;5035453;28;20041;-67
2023/05/02 12:00:07;;;;;;;13.52;10.80;;;;;17.60;99208.00;;;;5033993;28;20049;-66
2023/05/02 12:02:41;;;;;;;7.47;5.30;;;;;17.40;99212.00;;;;5035566;28;20049;-66
2023/05/02 12:05:13;;;;;;;9.05;5.70;;;;;17.10;99221.00;;;;5034056;28;20050;-66
2023/05/02 12:07:44;;;;;;;7.88;5.70;;;;;17.00;99217.00;;;;5035177;28;20128;-67
2023/05/02 12:10:12;;;;;;;7.28;5.63;;;;;16.90;99215.00;;;;5033886;28;20525;-66
2023/05/02 12:12:42;;;;;;;8.13;5.25;;;;;16.80;99209.00;;;;5035097;28;20048;-66
2023/05/02 12:15:10;;;;;;;12.77;5.70;;;;;16.80;99213.00;;;;5035025;28;20414;-66
2023/05/02 12:17:42;;;;;;;9.75;5.53;;;;;16.90;99214.00;;;;5035014;28;20052;-66
2023/05/02 12:20:09;;;;;;;8.95;5.70;;;;;16.90;99214.00;;;;5035088;28;20042;-66
2023/05/02 12:22:36;;;;;;;7.80;5.72;;;;;17.10;99223.00;;;;5034962;28;20091;-67
2023/05/02 12:25:04;;;;;;;8.18;5.93;;;;;17.10;99230.00;;;;5034800;28;20495;-66